MSC Armonia — H8EW — position and weather

sailwx.info

Track history (hours):
 
Tides and Currents Weather Stations Pressure Air Temp Water Temp Dewpoint Dewpoint Depression Visibility Wind Speed Wind Dir Waves Ship Positions

MSC Armonia

Operator: Mediterranean Shipping Company

Last reported at 2019-Jun-15 01:38 UTC. Time now 2019-Jun-16 00:46 UTC.
Position N 20°28' W 087°02'.

Length 275 m; draft 6.8 m.

Type: Ship. MMSI: 357281000.

Date/timePositionNaut miles runAvg speedWind from/ knotsBaromVisibWave heightAir tempDewpointWater temp
2019-Jun-15 01:38N 20°28' W 087°02'213.5
2019-Jun-15 01:30N 20°30' W 087°00'3 5.6
2019-Jun-15 00:58N 20°31' W 086°57'0 0.0
2019-Jun-15 00:25N 20°31' W 086°57'0 0.0
2019-Jun-14 23:58N 20°31' W 086°57'0 0.0
2019-Jun-14 23:28N 20°31' W 086°57'0 0.0
2019-Jun-14 22:58N 20°31' W 086°57'0 0.0
2019-Jun-14 22:25N 20°31' W 086°57'0 0.0
2019-Jun-14 21:49N 20°31' W 086°57'0 0.0
2019-Jun-14 21:25N 20°31' W 086°57'0 0.0
2019-Jun-14 20:58N 20°31' W 086°57'0 0.0
2019-Jun-14 20:19N 20°31' W 086°57'  
2019-Jun-11 00:40N 25°31' W 079°42'2013.0
2019-Jun-10 23:07N 25°43' W 079°60'112.8
2019-Jun-10 23:00N 25°44' W 080°01'611.5
2019-Jun-10 22:31N 25°45' W 080°07'3 6.3
2019-Jun-10 21:59N 25°47' W 080°10'0 0.0
2019-Jun-10 21:29N 25°47' W 080°10'0 0.0
2019-Jun-10 20:59N 25°47' W 080°10'0 0.0
2019-Jun-10 20:29N 25°47' W 080°10'0 0.0
2019-Jun-10 19:59N 25°47' W 080°10'0 0.0
2019-Jun-10 19:26N 25°47' W 080°10'0 0.0
2019-Jun-10 18:59N 25°47' W 080°10'0 0.0
2019-Jun-10 18:29N 25°47' W 080°10'0 0.0
2019-Jun-10 17:59N 25°47' W 080°10'0 0.0
2019-Jun-10 17:29N 25°47' W 080°10'0 0.0
2019-Jun-10 16:59N 25°47' W 080°10'0 0.0
2019-Jun-10 16:26N 25°47' W 080°10'0 0.0
2019-Jun-10 15:59N 25°47' W 080°10'0 0.0
2019-Jun-10 15:29N 25°47' W 080°10'0 0.0
2019-Jun-10 14:56N 25°47' W 080°10'0 0.0
2019-Jun-10 14:26N 25°47' W 080°10'0 0.0
2019-Jun-10 13:59N 25°47' W 080°10'0 0.0
2019-Jun-10 13:29N 25°47' W 080°10'0 0.0
2019-Jun-10 12:59N 25°47' W 080°10'0 0.0
2019-Jun-10 12:29N 25°47' W 080°10'0 0.0
2019-Jun-10 11:59N 25°47' W 080°10'0 0.0
2019-Jun-10 11:29N 25°47' W 080°10'0 0.0
2019-Jun-10 10:59N 25°47' W 080°10'0 0.0
2019-Jun-10 10:29N 25°47' W 080°10'0 0.0
2019-Jun-10 10:00N 25°47' W 080°10'0 0.3
2019-Jun-10 09:30N 25°47' W 080°10'4 8.5
2019-Jun-10 09:00N 25°46' W 080°06'611.4
2019-Jun-10 08:30N 25°45' W 079°59'611.6
2019-Jun-10 08:00N 25°40' W 079°57'  
2019-Jun-08 00:59N 20°32' W 086°57'1 2.1
2019-Jun-08 00:20N 20°31' W 086°57'0 0.0
2019-Jun-07 23:59N 20°31' W 086°57'0 0.0
2019-Jun-07 23:26N 20°31' W 086°57'0 0.0
2019-Jun-07 22:59N 20°31' W 086°57'0 0.0
2019-Jun-07 22:29N 20°31' W 086°57'0 0.0
2019-Jun-07 21:59N 20°31' W 086°57'0 0.0
2019-Jun-07 21:29N 20°31' W 086°57'0 0.0
2019-Jun-07 20:59N 20°31' W 086°57'0 0.0
2019-Jun-07 20:26N 20°31' W 086°57'0 0.0
2019-Jun-07 19:59N 20°31' W 086°57'0 0.0
2019-Jun-07 19:26N 20°31' W 086°57'0 0.0
2019-Jun-07 18:53N 20°31' W 086°57'0 0.0
2019-Jun-07 18:29N 20°31' W 086°57'0 0.0
2019-Jun-07 17:59N 20°31' W 086°57'0 0.0
2019-Jun-07 17:26N 20°31' W 086°57'0 0.0
2019-Jun-07 16:59N 20°31' W 086°57'0 0.0
2019-Jun-07 16:26N 20°31' W 086°57'0 0.0
2019-Jun-07 15:59N 20°31' W 086°57'0 0.0
2019-Jun-07 15:29N 20°31' W 086°57'0 0.0
2019-Jun-07 14:59N 20°31' W 086°57'0 0.0
2019-Jun-07 14:29N 20°31' W 086°57'0 0.0
2019-Jun-07 13:59N 20°31' W 086°57'0 0.0
2019-Jun-07 13:26N 20°31' W 086°57'0 0.0
2019-Jun-07 12:59N 20°31' W 086°57'0 0.0
2019-Jun-07 12:29N 20°31' W 086°57'0 0.0
2019-Jun-07 11:59N 20°31' W 086°57'0 0.0
2019-Jun-07 11:29N 20°31' W 086°57'0 0.7
2019-Jun-07 11:00N 20°31' W 086°57'2 5.0
2019-Jun-07 10:30N 20°30' W 086°60'  
Track history (hours):
 
Tides and Currents Weather Stations Pressure Air Temp Water Temp Dewpoint Dewpoint Depression Visibility Wind Speed Wind Dir Waves Ship Positions

MSC Armonia

Operator: Mediterranean Shipping Company

Last reported at 2019-Jun-15 01:38 UTC. Time now 2019-Jun-16 00:46 UTC.
Position N 20°28' W 087°02'.

Length 275 m; draft 6.8 m.

Type: Ship. MMSI: 357281000.

Date/timePositionNaut miles runAvg speedWind from/ knotsBaromVisibWave heightAir tempDewpointWater temp
2019-Jun-15 01:38N 20°28' W 087°02'213.5
2019-Jun-15 01:30N 20°30' W 087°00'3 5.6
2019-Jun-15 00:58N 20°31' W 086°57'0 0.0
2019-Jun-15 00:25N 20°31' W 086°57'0 0.0
2019-Jun-14 23:58N 20°31' W 086°57'0 0.0
2019-Jun-14 23:28N 20°31' W 086°57'0 0.0
2019-Jun-14 22:58N 20°31' W 086°57'0 0.0
2019-Jun-14 22:25N 20°31' W 086°57'0 0.0
2019-Jun-14 21:49N 20°31' W 086°57'0 0.0
2019-Jun-14 21:25N 20°31' W 086°57'0 0.0
2019-Jun-14 20:58N 20°31' W 086°57'0 0.0
2019-Jun-14 20:19N 20°31' W 086°57'  
2019-Jun-11 00:40N 25°31' W 079°42'2013.0
2019-Jun-10 23:07N 25°43' W 079°60'112.8
2019-Jun-10 23:00N 25°44' W 080°01'611.5
2019-Jun-10 22:31N 25°45' W 080°07'3 6.3
2019-Jun-10 21:59N 25°47' W 080°10'0 0.0
2019-Jun-10 21:29N 25°47' W 080°10'0 0.0
2019-Jun-10 20:59N 25°47' W 080°10'0 0.0
2019-Jun-10 20:29N 25°47' W 080°10'0 0.0
2019-Jun-10 19:59N 25°47' W 080°10'0 0.0
2019-Jun-10 19:26N 25°47' W 080°10'0 0.0
2019-Jun-10 18:59N 25°47' W 080°10'0 0.0
2019-Jun-10 18:29N 25°47' W 080°10'0 0.0
2019-Jun-10 17:59N 25°47' W 080°10'0 0.0
2019-Jun-10 17:29N 25°47' W 080°10'0 0.0
2019-Jun-10 16:59N 25°47' W 080°10'0 0.0
2019-Jun-10 16:26N 25°47' W 080°10'0 0.0
2019-Jun-10 15:59N 25°47' W 080°10'0 0.0
2019-Jun-10 15:29N 25°47' W 080°10'0 0.0
2019-Jun-10 14:56N 25°47' W 080°10'0 0.0
2019-Jun-10 14:26N 25°47' W 080°10'0 0.0
2019-Jun-10 13:59N 25°47' W 080°10'0 0.0
2019-Jun-10 13:29N 25°47' W 080°10'0 0.0
2019-Jun-10 12:59N 25°47' W 080°10'0 0.0
2019-Jun-10 12:29N 25°47' W 080°10'0 0.0
2019-Jun-10 11:59N 25°47' W 080°10'0 0.0
2019-Jun-10 11:29N 25°47' W 080°10'0 0.0
2019-Jun-10 10:59N 25°47' W 080°10'0 0.0
2019-Jun-10 10:29N 25°47' W 080°10'0 0.0
2019-Jun-10 10:00N 25°47' W 080°10'0 0.3
2019-Jun-10 09:30N 25°47' W 080°10'4 8.5
2019-Jun-10 09:00N 25°46' W 080°06'611.4
2019-Jun-10 08:30N 25°45' W 079°59'611.6
2019-Jun-10 08:00N 25°40' W 079°57'  
2019-Jun-08 00:59N 20°32' W 086°57'1 2.1
2019-Jun-08 00:20N 20°31' W 086°57'0 0.0
2019-Jun-07 23:59N 20°31' W 086°57'0 0.0
2019-Jun-07 23:26N 20°31' W 086°57'0 0.0
2019-Jun-07 22:59N 20°31' W 086°57'0 0.0
2019-Jun-07 22:29N 20°31' W 086°57'0 0.0
2019-Jun-07 21:59N 20°31' W 086°57'0 0.0
2019-Jun-07 21:29N 20°31' W 086°57'0 0.0
2019-Jun-07 20:59N 20°31' W 086°57'0 0.0
2019-Jun-07 20:26N 20°31' W 086°57'0 0.0
2019-Jun-07 19:59N 20°31' W 086°57'0 0.0
2019-Jun-07 19:26N 20°31' W 086°57'0 0.0
2019-Jun-07 18:53N 20°31' W 086°57'0 0.0
2019-Jun-07 18:29N 20°31' W 086°57'0 0.0
2019-Jun-07 17:59N 20°31' W 086°57'0 0.0
2019-Jun-07 17:26N 20°31' W 086°57'0 0.0
2019-Jun-07 16:59N 20°31' W 086°57'0 0.0
2019-Jun-07 16:26N 20°31' W 086°57'0 0.0
2019-Jun-07 15:59N 20°31' W 086°57'0 0.0
2019-Jun-07 15:29N 20°31' W 086°57'0 0.0
2019-Jun-07 14:59N 20°31' W 086°57'0 0.0
2019-Jun-07 14:29N 20°31' W 086°57'0 0.0
2019-Jun-07 13:59N 20°31' W 086°57'0 0.0
2019-Jun-07 13:26N 20°31' W 086°57'0 0.0
2019-Jun-07 12:59N 20°31' W 086°57'0 0.0
2019-Jun-07 12:29N 20°31' W 086°57'0 0.0
2019-Jun-07 11:59N 20°31' W 086°57'0 0.0
2019-Jun-07 11:29N 20°31' W 086°57'0 0.7
2019-Jun-07 11:00N 20°31' W 086°57'2 5.0
2019-Jun-07 10:30N 20°30' W 086°60'  

Dump ship's entire track history